createdAt,value
2022-10-10T00:01:13.202Z,11.29
2022-10-10T00:04:14.832Z,11.08
2022-10-10T00:07:16.423Z,10.83
2022-10-10T00:10:18.177Z,10.63
2022-10-10T00:13:21.300Z,10.56
2022-10-10T00:16:23.176Z,10.46
2022-10-10T00:19:24.891Z,10.48
2022-10-10T00:22:26.538Z,10.28
2022-10-10T00:25:28.753Z,10.33
2022-10-10T00:28:31.771Z,10.24
2022-10-10T00:31:33.661Z,10.14
2022-10-10T00:34:35.289Z,10.02
2022-10-10T00:37:36.969Z,9.84
2022-10-10T00:40:45.870Z,9.69
2022-10-10T00:44:06.464Z,9.80
2022-10-10T00:47:08.241Z,9.83
2022-10-10T00:50:09.966Z,9.70
2022-10-10T00:53:13.041Z,9.56
2022-10-10T00:56:17.341Z,9.66
2022-10-10T00:59:21.098Z,9.45
2022-10-10T01:02:22.755Z,9.32
2022-10-10T01:05:24.812Z,9.37
2022-10-10T01:08:26.449Z,9.19
2022-10-10T01:11:38.144Z,9.26
2022-10-10T01:14:51.501Z,9.31
2022-10-10T01:18:01.165Z,9.22
2022-10-10T01:21:19.212Z,9.09
2022-10-10T01:24:38.254Z,9.07
2022-10-10T01:27:45.997Z,8.98
2022-10-10T01:30:49.864Z,8.92
2022-10-10T01:34:03.836Z,8.83
2022-10-10T01:37:16.336Z,8.83
2022-10-10T01:40:25.006Z,8.93
2022-10-10T01:43:26.656Z,8.92
2022-10-10T01:46:29.743Z,8.86
2022-10-10T01:49:34.002Z,8.70
2022-10-10T01:52:48.656Z,8.58
2022-10-10T01:55:55.704Z,8.71
2022-10-10T01:59:11.394Z,8.77
2022-10-10T02:02:24.461Z,8.77
2022-10-10T02:05:32.674Z,8.66
2022-10-10T02:08:36.621Z,8.58
2022-10-10T02:11:39.645Z,8.55
2022-10-10T02:14:44.591Z,8.59
2022-10-10T02:17:50.020Z,8.61
2022-10-10T02:20:53.074Z,8.56
2022-10-10T02:23:59.698Z,8.49
2022-10-10T02:27:07.205Z,8.51
2022-10-10T02:30:10.414Z,8.42
2022-10-10T02:33:15.882Z,8.36
2022-10-10T02:36:20.166Z,8.31
2022-10-10T02:39:25.581Z,8.40
2022-10-10T02:42:29.229Z,8.41
2022-10-10T02:45:33.165Z,8.40
2022-10-10T02:48:36.311Z,8.38
2022-10-10T02:51:38.988Z,8.41
2022-10-10T02:54:40.868Z,8.53
2022-10-10T02:57:42.516Z,8.57
2022-10-10T03:00:44.238Z,8.38
2022-10-10T03:03:47.257Z,8.47
2022-10-10T03:06:49.060Z,8.39
2022-10-10T03:09:50.751Z,8.41
2022-10-10T03:12:52.803Z,8.30
2022-10-10T03:15:54.777Z,8.20
2022-10-10T03:18:57.698Z,8.28
2022-10-10T03:21:59.303Z,8.34
2022-10-10T03:25:01.009Z,8.00
2022-10-10T03:28:02.632Z,7.87
2022-10-10T03:31:04.816Z,7.90
2022-10-10T03:34:07.826Z,8.05
2022-10-10T03:37:09.637Z,7.95
2022-10-10T03:40:11.334Z,7.85
2022-10-10T03:43:14.715Z,7.84
2022-10-10T03:46:16.708Z,7.74
2022-10-10T03:49:19.821Z,7.74
2022-10-10T03:52:22.026Z,7.89
2022-10-10T03:55:23.800Z,7.74
2022-10-10T03:58:25.493Z,7.85
2022-10-10T04:01:28.035Z,7.94
2022-10-10T04:04:31.638Z,7.99
2022-10-10T04:07:33.593Z,7.87
2022-10-10T04:10:35.213Z,7.83
2022-10-10T04:13:36.867Z,7.86
2022-10-10T04:16:38.496Z,7.95
2022-10-10T04:19:41.480Z,7.86
2022-10-10T04:22:43.866Z,7.89
2022-10-10T04:25:45.576Z,7.86
2022-10-10T04:28:47.451Z,7.82
2022-10-10T04:31:49.133Z,7.80
2022-10-10T04:34:52.167Z,7.74
2022-10-10T04:37:53.895Z,7.77
2022-10-10T04:40:55.533Z,7.82
2022-10-10T04:43:57.170Z,7.72
2022-10-10T04:46:58.804Z,7.74
2022-10-10T04:50:01.819Z,7.74
2022-10-10T04:53:03.644Z,7.73
2022-10-10T04:56:05.704Z,7.84
2022-10-10T04:59:07.339Z,7.85
2022-10-10T05:02:09.567Z,7.68
2022-10-10T05:05:12.557Z,7.77
2022-10-10T05:08:14.433Z,7.86
2022-10-10T05:11:16.081Z,7.84
2022-10-10T05:14:17.688Z,7.90
2022-10-10T05:17:19.380Z,7.86
2022-10-10T05:20:22.378Z,7.82
2022-10-10T05:23:24.009Z,7.70
2022-10-10T05:26:25.656Z,7.80
2022-10-10T05:29:27.429Z,7.84
2022-10-10T05:32:29.071Z,7.76
2022-10-10T05:35:32.046Z,7.70
2022-10-10T05:38:34.059Z,7.59
2022-10-10T05:41:36.020Z,7.68
2022-10-10T05:44:37.751Z,7.60
2022-10-10T05:47:39.463Z,7.58
2022-10-10T05:50:47.775Z,7.77
2022-10-10T05:53:49.384Z,7.77
2022-10-10T05:56:51.059Z,7.67
2022-10-10T05:59:52.753Z,7.71
2022-10-10T06:02:54.747Z,7.64
2022-10-10T06:05:58.379Z,7.73
2022-10-10T06:09:00.075Z,7.87
2022-10-10T06:12:01.715Z,7.92
2022-10-10T06:15:04.000Z,7.99
2022-10-10T06:18:06.397Z,8.16
2022-10-10T06:21:11.747Z,8.22
2022-10-10T06:24:13.365Z,8.20
2022-10-10T06:27:15.174Z,8.28
2022-10-10T06:30:17.015Z,8.34
2022-10-10T06:33:19.325Z,8.49
2022-10-10T06:36:22.354Z,8.44
2022-10-10T06:39:24.178Z,8.56
2022-10-10T06:42:25.805Z,8.67
2022-10-10T06:45:35.710Z,8.78
2022-10-10T06:48:37.415Z,8.93
2022-10-10T06:51:40.648Z,9.00
2022-10-10T06:54:42.478Z,9.11
2022-10-10T06:57:44.450Z,9.26
2022-10-10T07:00:49.628Z,9.41
2022-10-10T07:03:51.528Z,9.56
2022-10-10T07:06:54.493Z,9.61
2022-10-10T07:09:56.136Z,9.79
2022-10-10T07:12:58.055Z,9.92
2022-10-10T07:16:00.033Z,9.88
2022-10-10T07:19:01.642Z,9.84
2022-10-10T07:22:05.542Z,9.95
2022-10-10T07:25:08.026Z,9.97
2022-10-10T07:28:10.076Z,10.02
2022-10-10T07:31:11.857Z,9.94
2022-10-10T07:34:13.490Z,9.88
2022-10-10T07:37:16.455Z,9.89
2022-10-10T07:40:18.361Z,9.92
2022-10-10T07:43:20.137Z,10.00
2022-10-10T07:46:22.010Z,10.12
2022-10-10T07:49:23.663Z,10.34
2022-10-10T07:52:26.714Z,10.41
2022-10-10T07:55:28.354Z,10.38
2022-10-10T07:58:30.212Z,10.30
2022-10-10T08:01:32.009Z,10.40
2022-10-10T08:04:35.343Z,10.60
2022-10-10T08:07:38.375Z,10.64
2022-10-10T08:10:43.784Z,10.69
2022-10-10T08:13:45.490Z,11.02
2022-10-10T08:16:47.137Z,10.75
2022-10-10T08:19:48.782Z,10.87
2022-10-10T08:22:52.214Z,10.87
2022-10-10T08:25:54.276Z,10.91
2022-10-10T08:28:56.195Z,10.97
2022-10-10T08:31:57.969Z,11.17
2022-10-10T08:34:59.685Z,11.54
2022-10-10T08:38:02.666Z,11.68
2022-10-10T08:41:08.309Z,12.01
2022-10-10T08:44:17.184Z,11.96
2022-10-10T08:47:22.844Z,12.23
2022-10-10T08:50:29.892Z,12.50
2022-10-10T08:53:39.342Z,12.64
2022-10-10T08:56:41.525Z,12.90
2022-10-10T08:59:43.599Z,13.03
2022-10-10T09:02:53.938Z,13.26
2022-10-10T09:06:10.285Z,13.36
2022-10-10T09:09:20.302Z,13.61
2022-10-10T09:12:29.938Z,13.59
2022-10-10T09:15:37.117Z,13.87
2022-10-10T09:18:52.680Z,13.97
2022-10-10T09:21:59.695Z,14.23
2022-10-10T09:25:10.805Z,14.51
2022-10-10T09:28:16.640Z,14.85
2022-10-10T09:31:23.501Z,15.02
2022-10-10T09:34:32.311Z,14.95
2022-10-10T09:37:46.726Z,15.22
2022-10-10T09:40:58.808Z,15.39
2022-10-10T09:44:07.619Z,15.32
2022-10-10T09:47:12.418Z,15.40
2022-10-10T09:50:15.518Z,15.70
2022-10-10T09:53:17.435Z,15.97
2022-10-10T09:56:24.287Z,16.17
2022-10-10T09:59:37.813Z,16.20
2022-10-10T10:02:39.537Z,16.34
2022-10-10T10:05:45.087Z,16.62
2022-10-10T10:08:52.365Z,16.63
2022-10-10T10:11:58.347Z,16.75
2022-10-10T10:15:04.736Z,16.69
2022-10-10T10:18:10.498Z,16.99
2022-10-10T10:21:17.338Z,17.40
2022-10-10T10:24:22.567Z,17.55
2022-10-10T10:27:27.993Z,17.55
2022-10-10T10:30:33.855Z,17.57
2022-10-10T10:33:50.115Z,17.76
2022-10-10T10:36:59.917Z,17.96
2022-10-10T10:40:26.076Z,17.93
2022-10-10T10:43:39.157Z,18.16
2022-10-10T10:46:55.405Z,18.18
2022-10-10T10:50:16.561Z,18.47
2022-10-10T10:53:27.976Z,18.33
2022-10-10T10:56:38.483Z,18.60
2022-10-10T11:00:17.037Z,18.52
2022-10-10T11:05:16.533Z,18.45
2022-10-10T11:07:17.785Z,18.87
2022-10-10T11:10:29.625Z,19.27
2022-10-10T11:13:39.797Z,19.25
2022-10-10T11:16:49.116Z,19.43
2022-10-10T11:19:56.915Z,19.73
2022-10-10T11:23:09.047Z,19.84
2022-10-10T11:26:18.118Z,19.59
2022-10-10T11:29:23.031Z,19.92
2022-10-10T11:32:31.839Z,19.84
2022-10-10T11:35:36.936Z,19.89
2022-10-10T11:38:44.900Z,20.14
2022-10-10T11:41:51.895Z,20.33
2022-10-10T11:44:59.150Z,20.81
2022-10-10T11:48:13.264Z,20.75
2022-10-10T11:51:35.189Z,20.73
2022-10-10T11:54:43.823Z,21.05
2022-10-10T11:57:49.730Z,21.11
2022-10-10T12:00:56.033Z,20.96
2022-10-10T12:03:59.232Z,21.14
2022-10-10T12:07:05.890Z,21.16
2022-10-10T12:10:11.787Z,21.43
2022-10-10T12:13:27.979Z,21.30
2022-10-10T12:16:31.544Z,21.51
2022-10-10T12:19:34.875Z,21.32
2022-10-10T12:22:37.274Z,21.72
2022-10-10T12:25:42.289Z,21.80
2022-10-10T12:29:05.068Z,22.16
2022-10-10T12:32:27.590Z,22.10
2022-10-10T12:35:37.487Z,22.20
2022-10-10T12:38:39.237Z,21.73
2022-10-10T12:41:55.055Z,21.73
2022-10-10T12:44:56.712Z,22.05
2022-10-10T12:48:05.510Z,22.12
2022-10-10T12:51:19.182Z,22.50
2022-10-10T12:54:25.152Z,22.22
2022-10-10T12:57:31.710Z,21.74
2022-10-10T13:00:37.817Z,22.27
2022-10-10T13:03:45.063Z,22.59
2022-10-10T13:06:52.383Z,22.84
2022-10-10T13:10:03.849Z,22.26
2022-10-10T13:13:15.823Z,22.49
2022-10-10T13:16:19.365Z,22.36
2022-10-10T13:19:23.390Z,22.30
2022-10-10T13:22:28.925Z,22.01
2022-10-10T13:25:31.078Z,22.76
2022-10-10T13:28:33.530Z,23.05
2022-10-10T13:31:37.967Z,22.65
2022-10-10T13:34:43.862Z,22.50
2022-10-10T13:37:50.723Z,22.03
2022-10-10T13:40:53.041Z,22.32
2022-10-10T13:43:54.813Z,23.02
2022-10-10T13:46:56.476Z,23.06
2022-10-10T13:49:58.194Z,23.04
2022-10-10T13:53:26.907Z,22.43
2022-10-10T13:56:30.924Z,22.76
2022-10-10T13:59:33.924Z,22.99
2022-10-10T14:02:37.487Z,22.99
2022-10-10T14:05:43.941Z,22.32
2022-10-10T14:08:48.961Z,22.12
2022-10-10T14:11:54.478Z,21.79
2022-10-10T14:14:58.428Z,21.81
2022-10-10T14:18:00.410Z,21.69
2022-10-10T14:21:02.678Z,21.67
2022-10-10T14:24:06.956Z,21.25
2022-10-10T14:27:13.355Z,21.30
2022-10-10T14:30:15.259Z,21.69
2022-10-10T14:33:18.839Z,21.83
2022-10-10T14:36:20.694Z,22.18
2022-10-10T14:39:23.649Z,22.53
2022-10-10T14:42:26.375Z,22.70
2022-10-10T14:45:28.305Z,21.99
2022-10-10T14:48:30.077Z,21.83
2022-10-10T14:51:38.068Z,21.82
2022-10-10T14:54:41.472Z,21.75
2022-10-10T14:57:43.109Z,21.90
2022-10-10T15:00:45.677Z,21.33
2022-10-10T15:03:47.343Z,21.46
2022-10-10T15:07:11.971Z,21.59
2022-10-10T15:13:36.544Z,21.61
2022-10-10T15:16:38.592Z,21.79
2022-10-10T15:19:40.266Z,21.66
2022-10-10T15:22:42.580Z,21.37
2022-10-10T15:25:45.575Z,20.61
2022-10-10T15:28:47.597Z,20.56
2022-10-10T15:31:49.203Z,20.43
2022-10-10T15:34:51.795Z,20.58
2022-10-10T15:37:53.652Z,20.41
2022-10-10T15:41:00.934Z,20.32
2022-10-10T15:44:03.171Z,20.30
2022-10-10T15:47:04.904Z,20.00
2022-10-10T15:50:09.155Z,19.70
2022-10-10T15:53:11.173Z,19.56
2022-10-10T15:56:16.930Z,19.67
2022-10-10T15:59:18.567Z,19.55
2022-10-10T16:02:20.351Z,19.65
2022-10-10T16:05:21.960Z,19.54
2022-10-10T16:08:23.592Z,19.66
2022-10-10T16:11:27.041Z,19.60
2022-10-10T16:14:28.867Z,19.31
2022-10-10T16:17:30.535Z,19.18
2022-10-10T16:20:32.241Z,18.87
2022-10-10T16:23:33.870Z,19.27
2022-10-10T16:26:37.945Z,18.86
2022-10-10T16:29:39.603Z,18.66
2022-10-10T16:32:42.795Z,18.60
2022-10-10T16:35:44.583Z,18.53
2022-10-10T16:38:46.981Z,18.56
2022-10-10T16:41:50.017Z,18.29
2022-10-10T16:44:51.710Z,18.26
2022-10-10T16:47:53.457Z,18.14
2022-10-10T16:50:55.152Z,18.66
2022-10-10T16:54:00.704Z,18.59
2022-10-10T16:57:03.774Z,18.38
2022-10-10T17:00:08.196Z,18.59
2022-10-10T17:03:09.832Z,18.76
2022-10-10T17:06:14.196Z,18.84
2022-10-10T17:09:18.090Z,18.99
2022-10-10T17:12:21.302Z,19.06
2022-10-10T17:15:22.954Z,18.62
2022-10-10T17:18:24.755Z,18.67
2022-10-10T17:21:26.703Z,18.73
2022-10-10T17:24:28.615Z,18.92
2022-10-10T17:27:31.663Z,18.94
2022-10-10T17:30:33.432Z,18.91
2022-10-10T17:33:36.283Z,18.83
2022-10-10T17:36:38.041Z,19.13
2022-10-10T17:39:39.729Z,18.94
2022-10-10T17:42:42.812Z,18.83
2022-10-10T17:45:44.400Z,18.82
2022-10-10T17:48:46.092Z,18.63
2022-10-10T17:51:47.893Z,18.15
2022-10-10T17:54:49.523Z,16.50
2022-10-10T17:57:52.610Z,16.37
2022-10-10T18:00:59.877Z,16.19
2022-10-10T18:04:04.379Z,17.18
2022-10-10T18:07:05.812Z,16.99
2022-10-10T18:10:08.103Z,16.25
2022-10-10T18:13:11.090Z,16.17
2022-10-10T18:16:14.686Z,15.29
2022-10-10T18:19:17.477Z,15.25
2022-10-10T18:22:19.160Z,15.18
2022-10-10T18:25:24.952Z,15.35
2022-10-10T18:28:29.989Z,14.94
2022-10-10T18:31:33.719Z,14.84
2022-10-10T18:34:35.547Z,14.84
2022-10-10T18:37:37.627Z,14.94
2022-10-10T18:40:39.613Z,14.76
2022-10-10T18:43:44.497Z,14.89
2022-10-10T18:46:46.474Z,14.90
2022-10-10T18:49:48.102Z,14.92
2022-10-10T18:52:49.828Z,14.81
2022-10-10T18:55:54.932Z,14.66
2022-10-10T18:59:01.223Z,14.68
2022-10-10T19:02:02.923Z,14.73
2022-10-10T19:05:05.346Z,14.92
2022-10-10T19:08:07.570Z,14.95
2022-10-10T19:11:18.800Z,14.92
2022-10-10T19:14:21.889Z,14.89
2022-10-10T19:17:24.190Z,14.87
2022-10-10T19:20:29.116Z,14.90
2022-10-10T19:23:31.705Z,14.85
2022-10-10T19:26:34.044Z,14.85
2022-10-10T19:29:37.117Z,14.84
2022-10-10T19:32:38.888Z,14.89
2022-10-10T19:35:42.096Z,14.95
2022-10-10T19:38:43.873Z,15.06
2022-10-10T19:41:45.613Z,15.10
2022-10-10T19:44:48.708Z,15.09
2022-10-10T19:47:50.473Z,15.01
2022-10-10T19:50:55.871Z,15.06
2022-10-10T19:53:57.817Z,15.08
2022-10-10T19:56:59.458Z,14.96
2022-10-10T20:00:03.244Z,15.06
2022-10-10T20:03:13.098Z,15.13
2022-10-10T20:06:16.295Z,15.04
2022-10-10T20:09:17.960Z,15.17
2022-10-10T20:12:19.618Z,15.14
2022-10-10T20:15:22.610Z,15.15
2022-10-10T20:18:24.297Z,15.03
2022-10-10T20:21:32.359Z,15.07
2022-10-10T20:24:33.965Z,15.01
2022-10-10T20:27:36.168Z,14.91
2022-10-10T20:30:42.388Z,14.95
2022-10-10T20:33:44.474Z,14.93
2022-10-10T20:36:46.100Z,14.91
2022-10-10T20:39:47.841Z,14.89
2022-10-10T20:42:49.546Z,14.77
2022-10-10T20:45:52.527Z,14.76
2022-10-10T20:48:54.735Z,14.71
2022-10-10T20:51:56.361Z,14.75
2022-10-10T20:54:58.000Z,14.71
2022-10-10T20:57:59.912Z,14.67
2022-10-10T21:01:11.369Z,14.72
2022-10-10T21:04:16.130Z,14.72
2022-10-10T21:07:17.833Z,14.73
2022-10-10T21:10:19.479Z,14.69
2022-10-10T21:13:21.180Z,14.67
2022-10-10T21:16:26.336Z,14.72
2022-10-10T21:19:28.004Z,14.72
2022-10-10T21:22:29.647Z,14.77
2022-10-10T21:25:31.280Z,14.68
2022-10-10T21:28:33.335Z,14.66
2022-10-10T21:31:38.511Z,14.62
2022-10-10T21:34:40.157Z,14.69
2022-10-10T21:37:44.186Z,14.73
2022-10-10T21:40:47.114Z,14.69
2022-10-10T21:43:52.108Z,14.60
2022-10-10T21:46:55.155Z,14.63
2022-10-10T21:49:56.775Z,14.67
2022-10-10T21:52:58.769Z,14.65
2022-10-10T21:56:05.480Z,14.75
2022-10-10T21:59:07.980Z,14.76
2022-10-10T22:02:10.963Z,14.74
2022-10-10T22:05:13.750Z,14.66
2022-10-10T22:08:15.431Z,14.69
2022-10-10T22:11:19.751Z,14.66
2022-10-10T22:14:21.368Z,14.60
2022-10-10T22:17:36.427Z,14.59
2022-10-10T22:20:38.058Z,14.53
2022-10-10T22:23:40.013Z,14.48
2022-10-10T22:26:42.151Z,14.48
2022-10-10T22:29:43.823Z,14.45
2022-10-10T22:32:46.822Z,14.45
2022-10-10T22:35:48.437Z,14.43
2022-10-10T22:38:50.051Z,14.53
2022-10-10T22:41:51.683Z,14.64
2022-10-10T22:44:53.312Z,14.57
2022-10-10T22:47:56.245Z,14.61
2022-10-10T22:50:59.587Z,14.45
2022-10-10T22:54:01.274Z,14.43
2022-10-10T22:57:03.057Z,14.38
2022-10-10T23:00:05.672Z,14.44
2022-10-10T23:03:08.769Z,14.40
2022-10-10T23:06:10.793Z,14.44
2022-10-10T23:09:13.545Z,14.49
2022-10-10T23:12:15.335Z,14.46
2022-10-10T23:15:17.228Z,14.48
2022-10-10T23:18:20.229Z,14.34
2022-10-10T23:21:22.118Z,14.41
2022-10-10T23:24:24.178Z,14.38
2022-10-10T23:27:25.920Z,14.31
2022-10-10T23:30:27.494Z,14.27
2022-10-10T23:33:34.582Z,14.20
2022-10-10T23:36:38.642Z,14.33
2022-10-10T23:39:41.295Z,14.28
2022-10-10T23:42:42.950Z,14.29
2022-10-10T23:45:44.577Z,14.28
2022-10-10T23:48:47.589Z,14.26
2022-10-10T23:51:49.287Z,14.28
2022-10-10T23:54:50.921Z,14.35
2022-10-10T23:57:52.633Z,14.38
